sensor_id;sensor_type;location;lat;lon;timestamp;P1;durP1;ratioP1;P2;durP2;ratioP2
545;SDS011;259;53.304;9.816;2023-11-22T00:00:53;1.67;;;1.57;;
545;SDS011;259;53.304;9.816;2023-11-22T00:03:18;1.70;;;1.60;;
545;SDS011;259;53.304;9.816;2023-11-22T00:05:44;1.60;;;1.50;;
545;SDS011;259;53.304;9.816;2023-11-22T00:08:11;1.80;;;1.70;;
545;SDS011;259;53.304;9.816;2023-11-22T00:10:37;1.70;;;1.60;;
545;SDS011;259;53.304;9.816;2023-11-22T00:13:04;1.60;;;1.50;;
545;SDS011;259;53.304;9.816;2023-11-22T00:15:30;1.83;;;1.73;;
545;SDS011;259;53.304;9.816;2023-11-22T00:17:56;1.50;;;1.40;;
545;SDS011;259;53.304;9.816;2023-11-22T00:20:28;1.50;;;1.40;;
545;SDS011;259;53.304;9.816;2023-11-22T00:22:55;1.50;;;1.40;;
545;SDS011;259;53.304;9.816;2023-11-22T00:25:21;1.17;;;1.17;;
545;SDS011;259;53.304;9.816;2023-11-22T00:27:47;1.40;;;1.30;;
545;SDS011;259;53.304;9.816;2023-11-22T00:30:13;1.27;;;1.17;;
545;SDS011;259;53.304;9.816;2023-11-22T00:32:39;1.43;;;1.33;;
545;SDS011;259;53.304;9.816;2023-11-22T00:35:05;1.50;;;1.40;;
545;SDS011;259;53.304;9.816;2023-11-22T00:37:35;1.90;;;1.80;;
545;SDS011;259;53.304;9.816;2023-11-22T00:40:01;1.37;;;1.27;;
545;SDS011;259;53.304;9.816;2023-11-22T00:42:35;1.60;;;1.50;;
545;SDS011;259;53.304;9.816;2023-11-22T00:45:07;1.40;;;1.30;;
545;SDS011;259;53.304;9.816;2023-11-22T00:47:34;1.93;;;1.77;;
545;SDS011;259;53.304;9.816;2023-11-22T00:50:01;1.37;;;1.27;;
545;SDS011;259;53.304;9.816;2023-11-22T00:52:29;1.63;;;1.53;;
545;SDS011;259;53.304;9.816;2023-11-22T00:54:55;1.60;;;1.50;;
545;SDS011;259;53.304;9.816;2023-11-22T00:57:21;1.43;;;1.33;;
545;SDS011;259;53.304;9.816;2023-11-22T00:59:47;1.53;;;1.43;;
545;SDS011;259;53.304;9.816;2023-11-22T01:02:13;1.40;;;1.30;;
545;SDS011;259;53.304;9.816;2023-11-22T01:04:38;1.80;;;1.70;;
545;SDS011;259;53.304;9.816;2023-11-22T01:07:05;1.50;;;1.40;;
545;SDS011;259;53.304;9.816;2023-11-22T01:09:31;1.20;;;1.20;;
545;SDS011;259;53.304;9.816;2023-11-22T01:12:00;1.30;;;1.20;;
545;SDS011;259;53.304;9.816;2023-11-22T01:14:26;1.70;;;1.60;;
545;SDS011;259;53.304;9.816;2023-11-22T01:16:53;1.77;;;1.67;;
545;SDS011;259;53.304;9.816;2023-11-22T01:19:19;1.60;;;1.50;;
545;SDS011;259;53.304;9.816;2023-11-22T01:21:45;1.90;;;1.40;;
545;SDS011;259;53.304;9.816;2023-11-22T01:24:11;1.40;;;1.30;;
545;SDS011;259;53.304;9.816;2023-11-22T01:26:37;1.40;;;1.30;;
545;SDS011;259;53.304;9.816;2023-11-22T01:29:03;1.50;;;1.40;;
545;SDS011;259;53.304;9.816;2023-11-22T01:31:29;1.43;;;1.33;;
545;SDS011;259;53.304;9.816;2023-11-22T01:33:55;1.53;;;1.43;;
545;SDS011;259;53.304;9.816;2023-11-22T01:36:21;1.40;;;1.30;;
545;SDS011;259;53.304;9.816;2023-11-22T01:38:46;1.80;;;1.70;;
545;SDS011;259;53.304;9.816;2023-11-22T01:41:12;1.60;;;1.50;;
545;SDS011;259;53.304;9.816;2023-11-22T01:43:39;2.27;;;1.40;;
545;SDS011;259;53.304;9.816;2023-11-22T01:46:08;1.23;;;1.13;;
545;SDS011;259;53.304;9.816;2023-11-22T01:48:47;1.60;;;1.50;;
545;SDS011;259;53.304;9.816;2023-11-22T01:51:13;1.60;;;1.40;;
545;SDS011;259;53.304;9.816;2023-11-22T01:53:39;1.50;;;1.40;;
545;SDS011;259;53.304;9.816;2023-11-22T01:56:05;1.40;;;1.30;;
545;SDS011;259;53.304;9.816;2023-11-22T01:58:31;1.40;;;1.30;;
545;SDS011;259;53.304;9.816;2023-11-22T02:00:57;1.60;;;1.50;;
545;SDS011;259;53.304;9.816;2023-11-22T02:03:24;1.77;;;1.67;;
545;SDS011;259;53.304;9.816;2023-11-22T02:05:50;1.70;;;1.60;;
545;SDS011;259;53.304;9.816;2023-11-22T02:08:15;1.37;;;1.27;;
545;SDS011;259;53.304;9.816;2023-11-22T02:10:42;1.37;;;1.30;;
545;SDS011;259;53.304;9.816;2023-11-22T02:13:09;1.70;;;1.40;;
545;SDS011;259;53.304;9.816;2023-11-22T02:15:35;1.70;;;1.60;;
545;SDS011;259;53.304;9.816;2023-11-22T02:18:03;1.70;;;1.60;;
545;SDS011;259;53.304;9.816;2023-11-22T02:20:30;1.20;;;1.10;;
545;SDS011;259;53.304;9.816;2023-11-22T02:22:56;1.30;;;1.20;;
545;SDS011;259;53.304;9.816;2023-11-22T02:25:26;1.40;;;1.30;;
545;SDS011;259;53.304;9.816;2023-11-22T02:27:52;1.63;;;1.53;;
545;SDS011;259;53.304;9.816;2023-11-22T02:30:18;1.20;;;1.10;;
545;SDS011;259;53.304;9.816;2023-11-22T02:32:44;1.70;;;1.60;;
545;SDS011;259;53.304;9.816;2023-11-22T02:35:10;2.20;;;1.70;;
545;SDS011;259;53.304;9.816;2023-11-22T02:37:35;1.57;;;1.47;;
545;SDS011;259;53.304;9.816;2023-11-22T02:40:17;1.73;;;1.63;;
545;SDS011;259;53.304;9.816;2023-11-22T02:42:48;1.43;;;1.33;;
545;SDS011;259;53.304;9.816;2023-11-22T02:45:15;1.60;;;1.50;;
545;SDS011;259;53.304;9.816;2023-11-22T02:47:48;1.30;;;1.20;;
545;SDS011;259;53.304;9.816;2023-11-22T02:50:14;1.60;;;1.50;;
545;SDS011;259;53.304;9.816;2023-11-22T02:52:41;1.23;;;1.13;;
545;SDS011;259;53.304;9.816;2023-11-22T02:55:07;1.83;;;1.37;;
545;SDS011;259;53.304;9.816;2023-11-22T02:57:37;1.97;;;1.87;;
545;SDS011;259;53.304;9.816;2023-11-22T03:00:05;1.27;;;1.27;;
545;SDS011;259;53.304;9.816;2023-11-22T03:02:33;1.10;;;1.03;;
545;SDS011;259;53.304;9.816;2023-11-22T03:04:59;1.30;;;1.20;;
545;SDS011;259;53.304;9.816;2023-11-22T03:07:25;1.30;;;1.30;;
545;SDS011;259;53.304;9.816;2023-11-22T03:09:52;1.30;;;1.20;;
545;SDS011;259;53.304;9.816;2023-11-22T03:12:18;1.27;;;1.20;;
545;SDS011;259;53.304;9.816;2023-11-22T03:14:48;0.97;;;0.97;;
545;SDS011;259;53.304;9.816;2023-11-22T03:17:16;1.20;;;1.10;;
545;SDS011;259;53.304;9.816;2023-11-22T03:19:42;1.50;;;1.40;;
545;SDS011;259;53.304;9.816;2023-11-22T03:22:10;0.90;;;0.90;;
545;SDS011;259;53.304;9.816;2023-11-22T03:24:36;1.60;;;1.50;;
545;SDS011;259;53.304;9.816;2023-11-22T03:27:03;1.20;;;1.10;;
545;SDS011;259;53.304;9.816;2023-11-22T03:29:29;1.20;;;1.10;;
545;SDS011;259;53.304;9.816;2023-11-22T03:31:55;1.53;;;1.43;;
545;SDS011;259;53.304;9.816;2023-11-22T03:34:20;1.17;;;1.07;;
545;SDS011;259;53.304;9.816;2023-11-22T03:36:46;1.43;;;1.33;;
545;SDS011;259;53.304;9.816;2023-11-22T03:39:13;1.40;;;1.30;;
545;SDS011;259;53.304;9.816;2023-11-22T03:41:40;1.13;;;1.10;;
545;SDS011;259;53.304;9.816;2023-11-22T03:44:07;1.80;;;1.70;;
545;SDS011;259;53.304;9.816;2023-11-22T03:46:36;1.10;;;1.10;;
545;SDS011;259;53.304;9.816;2023-11-22T03:49:03;1.50;;;1.40;;
545;SDS011;259;53.304;9.816;2023-11-22T03:51:31;1.40;;;1.30;;
545;SDS011;259;53.304;9.816;2023-11-22T03:53:58;1.17;;;1.10;;
545;SDS011;259;53.304;9.816;2023-11-22T03:56:24;1.33;;;1.23;;
545;SDS011;259;53.304;9.816;2023-11-22T03:58:50;1.63;;;1.53;;
545;SDS011;259;53.304;9.816;2023-11-22T04:01:16;1.40;;;1.30;;
545;SDS011;259;53.304;9.816;2023-11-22T04:03:43;1.40;;;1.10;;
545;SDS011;259;53.304;9.816;2023-11-22T04:06:09;1.40;;;1.30;;
545;SDS011;259;53.304;9.816;2023-11-22T04:08:35;1.60;;;1.37;;
545;SDS011;259;53.304;9.816;2023-11-22T04:11:01;1.10;;;1.10;;
545;SDS011;259;53.304;9.816;2023-11-22T04:13:27;1.30;;;1.23;;
545;SDS011;259;53.304;9.816;2023-11-22T04:15:52;1.30;;;1.20;;
545;SDS011;259;53.304;9.816;2023-11-22T04:18:18;1.23;;;1.13;;
545;SDS011;259;53.304;9.816;2023-11-22T04:20:44;0.80;;;0.80;;
545;SDS011;259;53.304;9.816;2023-11-22T04:23:11;1.33;;;1.20;;
545;SDS011;259;53.304;9.816;2023-11-22T04:25:38;1.53;;;1.43;;
545;SDS011;259;53.304;9.816;2023-11-22T04:28:06;1.60;;;1.50;;
545;SDS011;259;53.304;9.816;2023-11-22T04:30:33;1.50;;;1.40;;
545;SDS011;259;53.304;9.816;2023-11-22T04:32:59;1.13;;;1.13;;
545;SDS011;259;53.304;9.816;2023-11-22T04:35:25;1.30;;;1.20;;
545;SDS011;259;53.304;9.816;2023-11-22T04:37:51;1.03;;;1.03;;
545;SDS011;259;53.304;9.816;2023-11-22T04:40:17;1.43;;;1.33;;
545;SDS011;259;53.304;9.816;2023-11-22T04:42:43;1.43;;;1.33;;
545;SDS011;259;53.304;9.816;2023-11-22T04:45:09;1.30;;;1.20;;
545;SDS011;259;53.304;9.816;2023-11-22T04:47:35;1.70;;;1.60;;
545;SDS011;259;53.304;9.816;2023-11-22T04:50:01;1.30;;;1.20;;
545;SDS011;259;53.304;9.816;2023-11-22T04:52:26;2.00;;;1.37;;
545;SDS011;259;53.304;9.816;2023-11-22T04:54:52;1.57;;;1.47;;
545;SDS011;259;53.304;9.816;2023-11-22T04:57:18;1.40;;;1.30;;
545;SDS011;259;53.304;9.816;2023-11-22T04:59:45;1.70;;;1.60;;
545;SDS011;259;53.304;9.816;2023-11-22T05:02:10;1.50;;;1.40;;
545;SDS011;259;53.304;9.816;2023-11-22T05:04:36;1.10;;;1.10;;
545;SDS011;259;53.304;9.816;2023-11-22T05:07:02;1.50;;;1.40;;
545;SDS011;259;53.304;9.816;2023-11-22T05:09:28;2.13;;;1.93;;
545;SDS011;259;53.304;9.816;2023-11-22T05:11:54;1.93;;;1.50;;
545;SDS011;259;53.304;9.816;2023-11-22T05:14:19;1.67;;;1.57;;
545;SDS011;259;53.304;9.816;2023-11-22T05:16:45;1.27;;;1.17;;
545;SDS011;259;53.304;9.816;2023-11-22T05:19:11;1.30;;;1.20;;
545;SDS011;259;53.304;9.816;2023-11-22T05:21:36;1.47;;;1.37;;
545;SDS011;259;53.304;9.816;2023-11-22T05:24:02;1.90;;;1.70;;
545;SDS011;259;53.304;9.816;2023-11-22T05:26:28;1.30;;;1.20;;
545;SDS011;259;53.304;9.816;2023-11-22T05:28:53;1.27;;;1.17;;
545;SDS011;259;53.304;9.816;2023-11-22T05:31:19;1.60;;;1.50;;
545;SDS011;259;53.304;9.816;2023-11-22T05:33:46;1.80;;;1.70;;
545;SDS011;259;53.304;9.816;2023-11-22T05:36:12;2.07;;;1.60;;
545;SDS011;259;53.304;9.816;2023-11-22T05:38:37;1.53;;;1.43;;
545;SDS011;259;53.304;9.816;2023-11-22T05:41:05;1.70;;;1.60;;
545;SDS011;259;53.304;9.816;2023-11-22T05:43:30;1.40;;;1.30;;
545;SDS011;259;53.304;9.816;2023-11-22T05:45:56;1.43;;;1.33;;
545;SDS011;259;53.304;9.816;2023-11-22T05:48:22;2.73;;;1.33;;
545;SDS011;259;53.304;9.816;2023-11-22T05:50:48;1.33;;;1.23;;
545;SDS011;259;53.304;9.816;2023-11-22T05:53:13;1.50;;;1.40;;
545;SDS011;259;53.304;9.816;2023-11-22T05:55:46;1.60;;;1.50;;
545;SDS011;259;53.304;9.816;2023-11-22T05:58:15;1.73;;;1.63;;
545;SDS011;259;53.304;9.816;2023-11-22T06:00:45;1.40;;;1.30;;
545;SDS011;259;53.304;9.816;2023-11-22T06:03:11;1.37;;;1.27;;
545;SDS011;259;53.304;9.816;2023-11-22T06:05:38;1.53;;;1.43;;
545;SDS011;259;53.304;9.816;2023-11-22T06:08:05;1.57;;;1.47;;
545;SDS011;259;53.304;9.816;2023-11-22T06:10:31;1.57;;;1.47;;
545;SDS011;259;53.304;9.816;2023-11-22T06:12:57;2.10;;;2.00;;
545;SDS011;259;53.304;9.816;2023-11-22T06:15:22;2.10;;;2.00;;
545;SDS011;259;53.304;9.816;2023-11-22T06:17:48;1.50;;;1.40;;
545;SDS011;259;53.304;9.816;2023-11-22T06:20:14;1.40;;;1.30;;
545;SDS011;259;53.304;9.816;2023-11-22T06:22:41;1.60;;;1.50;;
545;SDS011;259;53.304;9.816;2023-11-22T06:25:13;1.73;;;1.63;;
545;SDS011;259;53.304;9.816;2023-11-22T06:27:40;1.40;;;1.30;;
545;SDS011;259;53.304;9.816;2023-11-22T06:30:06;1.70;;;1.60;;
545;SDS011;259;53.304;9.816;2023-11-22T06:32:34;1.27;;;1.27;;
545;SDS011;259;53.304;9.816;2023-11-22T06:35:00;1.30;;;1.20;;
545;SDS011;259;53.304;9.816;2023-11-22T06:37:26;1.50;;;1.37;;
545;SDS011;259;53.304;9.816;2023-11-22T06:39:52;1.40;;;1.30;;
545;SDS011;259;53.304;9.816;2023-11-22T06:42:18;1.80;;;1.70;;
545;SDS011;259;53.304;9.816;2023-11-22T06:44:47;1.13;;;1.03;;
545;SDS011;259;53.304;9.816;2023-11-22T06:47:13;1.40;;;1.30;;
545;SDS011;259;53.304;9.816;2023-11-22T06:49:39;1.50;;;1.40;;
545;SDS011;259;53.304;9.816;2023-11-22T06:52:04;1.20;;;1.20;;
545;SDS011;259;53.304;9.816;2023-11-22T06:54:30;2.07;;;1.93;;
545;SDS011;259;53.304;9.816;2023-11-22T06:56:56;7.33;;;6.63;;
545;SDS011;259;53.304;9.816;2023-11-22T06:59:22;15.53;;;11.23;;
545;SDS011;259;53.304;9.816;2023-11-22T07:01:48;17.10;;;15.70;;
545;SDS011;259;53.304;9.816;2023-11-22T07:04:13;24.43;;;21.83;;
545;SDS011;259;53.304;9.816;2023-11-22T07:06:39;21.13;;;19.33;;
545;SDS011;259;53.304;9.816;2023-11-22T07:09:05;17.83;;;16.03;;
545;SDS011;259;53.304;9.816;2023-11-22T07:11:34;17.93;;;12.37;;
545;SDS011;259;53.304;9.816;2023-11-22T07:14:02;11.90;;;11.00;;
545;SDS011;259;53.304;9.816;2023-11-22T07:16:28;10.83;;;9.93;;
545;SDS011;259;53.304;9.816;2023-11-22T07:18:55;10.00;;;9.03;;
545;SDS011;259;53.304;9.816;2023-11-22T07:21:21;9.10;;;8.30;;
545;SDS011;259;53.304;9.816;2023-11-22T07:23:47;8.57;;;7.97;;
545;SDS011;259;53.304;9.816;2023-11-22T07:26:13;7.33;;;6.63;;
545;SDS011;259;53.304;9.816;2023-11-22T07:28:39;5.53;;;5.13;;
545;SDS011;259;53.304;9.816;2023-11-22T07:31:08;6.73;;;6.13;;
545;SDS011;259;53.304;9.816;2023-11-22T07:33:34;4.80;;;4.40;;
545;SDS011;259;53.304;9.816;2023-11-22T07:36:00;4.10;;;3.80;;
545;SDS011;259;53.304;9.816;2023-11-22T07:38:28;5.10;;;3.50;;
545;SDS011;259;53.304;9.816;2023-11-22T07:40:56;2.87;;;2.67;;
545;SDS011;259;53.304;9.816;2023-11-22T07:43:22;2.67;;;2.47;;
545;SDS011;259;53.304;9.816;2023-11-22T07:45:47;4.10;;;2.80;;
545;SDS011;259;53.304;9.816;2023-11-22T07:48:15;2.33;;;2.13;;
545;SDS011;259;53.304;9.816;2023-11-22T07:50:41;2.37;;;2.17;;
545;SDS011;259;53.304;9.816;2023-11-22T07:53:14;2.97;;;1.80;;
545;SDS011;259;53.304;9.816;2023-11-22T07:55:40;1.77;;;1.67;;
545;SDS011;259;53.304;9.816;2023-11-22T07:58:07;1.63;;;1.47;;
545;SDS011;259;53.304;9.816;2023-11-22T08:00:33;1.77;;;1.67;;
545;SDS011;259;53.304;9.816;2023-11-22T08:02:59;1.30;;;1.20;;
545;SDS011;259;53.304;9.816;2023-11-22T08:05:32;1.60;;;1.50;;
545;SDS011;259;53.304;9.816;2023-11-22T08:08:05;2.10;;;1.57;;
545;SDS011;259;53.304;9.816;2023-11-22T08:10:36;2.03;;;1.40;;
545;SDS011;259;53.304;9.816;2023-11-22T08:13:02;2.00;;;1.60;;
545;SDS011;259;53.304;9.816;2023-11-22T08:15:28;1.43;;;1.33;;
545;SDS011;259;53.304;9.816;2023-11-22T08:17:57;1.20;;;1.10;;
545;SDS011;259;53.304;9.816;2023-11-22T08:20:25;1.87;;;1.40;;
545;SDS011;259;53.304;9.816;2023-11-22T08:22:51;1.17;;;1.07;;
545;SDS011;259;53.304;9.816;2023-11-22T08:25:17;1.20;;;1.10;;
545;SDS011;259;53.304;9.816;2023-11-22T08:27:43;1.20;;;1.10;;
545;SDS011;259;53.304;9.816;2023-11-22T08:30:09;1.23;;;1.13;;
545;SDS011;259;53.304;9.816;2023-11-22T08:32:41;10.07;;;2.53;;
545;SDS011;259;53.304;9.816;2023-11-22T08:35:09;10.10;;;2.00;;
545;SDS011;259;53.304;9.816;2023-11-22T08:37:35;8.07;;;1.87;;
545;SDS011;259;53.304;9.816;2023-11-22T08:40:06;68.60;;;61.77;;
545;SDS011;259;53.304;9.816;2023-11-22T08:42:33;27.37;;;24.47;;
545;SDS011;259;53.304;9.816;2023-11-22T08:45:00;19.23;;;13.13;;
545;SDS011;259;53.304;9.816;2023-11-22T08:47:28;19.93;;;13.20;;
545;SDS011;259;53.304;9.816;2023-11-22T08:49:55;21.70;;;12.23;;
545;SDS011;259;53.304;9.816;2023-11-22T08:52:21;17.60;;;10.70;;
545;SDS011;259;53.304;9.816;2023-11-22T08:54:48;39.87;;;11.37;;
545;SDS011;259;53.304;9.816;2023-11-22T08:57:15;19.93;;;9.77;;
545;SDS011;259;53.304;9.816;2023-11-22T08:59:41;12.10;;;7.60;;
545;SDS011;259;53.304;9.816;2023-11-22T09:02:06;21.20;;;7.23;;
545;SDS011;259;53.304;9.816;2023-11-22T09:04:37;13.87;;;6.23;;
545;SDS011;259;53.304;9.816;2023-11-22T09:07:03;13.60;;;6.80;;
545;SDS011;259;53.304;9.816;2023-11-22T09:09:31;10.63;;;5.87;;
545;SDS011;259;53.304;9.816;2023-11-22T09:11:57;13.17;;;5.10;;
545;SDS011;259;53.304;9.816;2023-11-22T09:14:23;7.90;;;4.77;;
545;SDS011;259;53.304;9.816;2023-11-22T09:16:52;11.10;;;4.57;;
545;SDS011;259;53.304;9.816;2023-11-22T09:19:22;5.60;;;4.10;;
545;SDS011;259;53.304;9.816;2023-11-22T09:21:50;5.97;;;3.93;;
545;SDS011;259;53.304;9.816;2023-11-22T09:24:16;14.67;;;4.73;;
545;SDS011;259;53.304;9.816;2023-11-22T09:26:42;14.00;;;4.83;;
545;SDS011;259;53.304;9.816;2023-11-22T09:29:08;21.30;;;5.03;;
545;SDS011;259;53.304;9.816;2023-11-22T09:31:38;16.97;;;4.77;;
545;SDS011;259;53.304;9.816;2023-11-22T09:34:05;9.57;;;3.60;;
545;SDS011;259;53.304;9.816;2023-11-22T09:36:30;11.87;;;4.40;;
545;SDS011;259;53.304;9.816;2023-11-22T09:38:59;14.20;;;3.97;;
545;SDS011;259;53.304;9.816;2023-11-22T09:41:24;15.50;;;3.40;;
545;SDS011;259;53.304;9.816;2023-11-22T09:43:52;14.37;;;4.73;;
545;SDS011;259;53.304;9.816;2023-11-22T09:46:18;8.07;;;3.40;;
545;SDS011;259;53.304;9.816;2023-11-22T09:48:48;15.30;;;3.53;;
545;SDS011;259;53.304;9.816;2023-11-22T09:51:29;10.53;;;3.67;;
545;SDS011;259;53.304;9.816;2023-11-22T09:53:58;7.03;;;3.97;;
545;SDS011;259;53.304;9.816;2023-11-22T09:56:29;11.13;;;4.40;;
545;SDS011;259;53.304;9.816;2023-11-22T09:58:57;8.40;;;2.93;;
545;SDS011;259;53.304;9.816;2023-11-22T10:01:26;16.83;;;3.93;;
545;SDS011;259;53.304;9.816;2023-11-22T10:04:02;18.60;;;4.50;;
545;SDS011;259;53.304;9.816;2023-11-22T10:06:30;16.33;;;5.43;;
545;SDS011;259;53.304;9.816;2023-11-22T10:09:00;10.70;;;4.67;;
545;SDS011;259;53.304;9.816;2023-11-22T10:11:32;25.47;;;4.93;;
545;SDS011;259;53.304;9.816;2023-11-22T10:14:01;14.53;;;3.67;;
545;SDS011;259;53.304;9.816;2023-11-22T10:16:27;11.60;;;4.00;;
545;SDS011;259;53.304;9.816;2023-11-22T10:18:52;10.63;;;3.30;;
545;SDS011;259;53.304;9.816;2023-11-22T10:21:22;13.57;;;3.33;;
545;SDS011;259;53.304;9.816;2023-11-22T10:23:49;8.53;;;3.47;;
545;SDS011;259;53.304;9.816;2023-11-22T10:26:22;17.40;;;3.10;;
545;SDS011;259;53.304;9.816;2023-11-22T10:28:50;8.97;;;3.27;;
545;SDS011;259;53.304;9.816;2023-11-22T10:31:20;7.13;;;2.53;;
545;SDS011;259;53.304;9.816;2023-11-22T10:33:47;9.40;;;3.20;;
545;SDS011;259;53.304;9.816;2023-11-22T10:36:13;13.37;;;3.43;;
545;SDS011;259;53.304;9.816;2023-11-22T10:38:40;9.93;;;2.93;;
545;SDS011;259;53.304;9.816;2023-11-22T10:41:07;7.30;;;2.70;;
545;SDS011;259;53.304;9.816;2023-11-22T10:43:36;5.93;;;2.63;;
545;SDS011;259;53.304;9.816;2023-11-22T10:46:02;7.17;;;2.77;;
545;SDS011;259;53.304;9.816;2023-11-22T10:48:34;12.33;;;3.70;;
545;SDS011;259;53.304;9.816;2023-11-22T10:51:00;11.83;;;3.17;;
545;SDS011;259;53.304;9.816;2023-11-22T10:53:34;13.40;;;3.63;;
545;SDS011;259;53.304;9.816;2023-11-22T10:56:04;13.47;;;3.83;;
545;SDS011;259;53.304;9.816;2023-11-22T10:58:47;17.33;;;3.03;;
545;SDS011;259;53.304;9.816;2023-11-22T11:01:16;13.40;;;3.57;;
545;SDS011;259;53.304;9.816;2023-11-22T11:03:46;25.23;;;4.40;;
545;SDS011;259;53.304;9.816;2023-11-22T11:06:31;21.40;;;4.50;;
545;SDS011;259;53.304;9.816;2023-11-22T11:09:03;17.27;;;5.10;;
545;SDS011;259;53.304;9.816;2023-11-22T11:11:31;24.43;;;3.83;;
545;SDS011;259;53.304;9.816;2023-11-22T11:14:00;18.13;;;3.40;;
545;SDS011;259;53.304;9.816;2023-11-22T11:16:28;16.23;;;3.27;;
545;SDS011;259;53.304;9.816;2023-11-22T11:19:02;10.40;;;3.50;;
545;SDS011;259;53.304;9.816;2023-11-22T11:21:32;10.70;;;3.30;;
545;SDS011;259;53.304;9.816;2023-11-22T11:23:58;10.23;;;3.10;;
545;SDS011;259;53.304;9.816;2023-11-22T11:26:28;10.43;;;3.40;;
545;SDS011;259;53.304;9.816;2023-11-22T11:28:57;12.13;;;3.10;;
545;SDS011;259;53.304;9.816;2023-11-22T11:31:23;9.37;;;2.70;;
545;SDS011;259;53.304;9.816;2023-11-22T11:36:26;10.33;;;3.17;;
545;SDS011;259;53.304;9.816;2023-11-22T11:38:55;8.03;;;2.30;;
545;SDS011;259;53.304;9.816;2023-11-22T11:41:28;4.13;;;2.40;;
545;SDS011;259;53.304;9.816;2023-11-22T11:43:57;6.60;;;2.10;;
545;SDS011;259;53.304;9.816;2023-11-22T11:46:27;8.40;;;2.77;;
545;SDS011;259;53.304;9.816;2023-11-22T11:48:54;3.57;;;1.80;;
545;SDS011;259;53.304;9.816;2023-11-22T11:51:21;6.60;;;1.90;;
545;SDS011;259;53.304;9.816;2023-11-22T11:53:52;6.37;;;2.47;;
545;SDS011;259;53.304;9.816;2023-11-22T11:56:19;5.70;;;1.93;;
545;SDS011;259;53.304;9.816;2023-11-22T11:58:45;2.77;;;1.90;;
545;SDS011;259;53.304;9.816;2023-11-22T12:01:14;7.27;;;2.00;;
545;SDS011;259;53.304;9.816;2023-11-22T12:03:42;3.10;;;2.37;;
545;SDS011;259;53.304;9.816;2023-11-22T12:06:14;4.27;;;1.73;;
545;SDS011;259;53.304;9.816;2023-11-22T12:08:41;5.80;;;2.30;;
545;SDS011;259;53.304;9.816;2023-11-22T12:11:07;4.17;;;1.63;;
545;SDS011;259;53.304;9.816;2023-11-22T12:13:33;3.37;;;1.27;;
545;SDS011;259;53.304;9.816;2023-11-22T12:16:03;3.03;;;1.53;;
545;SDS011;259;53.304;9.816;2023-11-22T12:18:42;1.67;;;1.40;;
545;SDS011;259;53.304;9.816;2023-11-22T12:21:15;2.90;;;1.53;;
545;SDS011;259;53.304;9.816;2023-11-22T12:23:43;1.97;;;1.30;;
545;SDS011;259;53.304;9.816;2023-11-22T12:26:13;3.23;;;1.67;;
545;SDS011;259;53.304;9.816;2023-11-22T12:28:46;2.50;;;1.30;;
545;SDS011;259;53.304;9.816;2023-11-22T12:31:14;2.83;;;1.27;;
545;SDS011;259;53.304;9.816;2023-11-22T12:33:40;4.83;;;1.13;;
545;SDS011;259;53.304;9.816;2023-11-22T12:36:08;1.53;;;1.17;;
545;SDS011;259;53.304;9.816;2023-11-22T12:38:35;1.63;;;1.10;;
545;SDS011;259;53.304;9.816;2023-11-22T12:41:02;1.17;;;1.00;;
545;SDS011;259;53.304;9.816;2023-11-22T12:43:29;2.70;;;1.27;;
545;SDS011;259;53.304;9.816;2023-11-22T12:46:14;1.27;;;1.00;;
545;SDS011;259;53.304;9.816;2023-11-22T12:48:41;1.03;;;0.93;;
545;SDS011;259;53.304;9.816;2023-11-22T12:51:16;0.97;;;0.87;;
545;SDS011;259;53.304;9.816;2023-11-22T12:53:45;2.73;;;1.10;;
545;SDS011;259;53.304;9.816;2023-11-22T12:56:11;1.80;;;1.10;;
545;SDS011;259;53.304;9.816;2023-11-22T12:58:37;0.80;;;0.80;;
545;SDS011;259;53.304;9.816;2023-11-22T13:01:03;1.47;;;1.30;;
545;SDS011;259;53.304;9.816;2023-11-22T13:03:29;3.20;;;1.13;;
545;SDS011;259;53.304;9.816;2023-11-22T13:05:56;1.10;;;1.00;;
545;SDS011;259;53.304;9.816;2023-11-22T13:08:22;1.10;;;1.00;;
545;SDS011;259;53.304;9.816;2023-11-22T13:10:50;1.40;;;1.13;;
545;SDS011;259;53.304;9.816;2023-11-22T13:13:22;1.83;;;0.97;;
545;SDS011;259;53.304;9.816;2023-11-22T13:15:49;0.80;;;0.80;;
545;SDS011;259;53.304;9.816;2023-11-22T13:18:15;1.23;;;0.93;;
545;SDS011;259;53.304;9.816;2023-11-22T13:20:41;1.70;;;1.00;;
545;SDS011;259;53.304;9.816;2023-11-22T13:23:07;1.23;;;1.13;;
545;SDS011;259;53.304;9.816;2023-11-22T13:25:34;1.00;;;1.00;;
545;SDS011;259;53.304;9.816;2023-11-22T13:27:59;1.20;;;1.10;;
545;SDS011;259;53.304;9.816;2023-11-22T13:30:25;0.77;;;0.77;;
545;SDS011;259;53.304;9.816;2023-11-22T13:32:52;4.07;;;1.17;;
545;SDS011;259;53.304;9.816;2023-11-22T13:35:21;1.10;;;1.00;;
545;SDS011;259;53.304;9.816;2023-11-22T13:37:47;1.83;;;1.27;;
545;SDS011;259;53.304;9.816;2023-11-22T13:40:14;2.10;;;1.17;;
545;SDS011;259;53.304;9.816;2023-11-22T13:42:42;1.20;;;1.00;;
545;SDS011;259;53.304;9.816;2023-11-22T13:45:13;1.20;;;1.10;;
545;SDS011;259;53.304;9.816;2023-11-22T13:47:46;1.20;;;1.07;;
545;SDS011;259;53.304;9.816;2023-11-22T13:50:13;1.30;;;1.20;;
545;SDS011;259;53.304;9.816;2023-11-22T13:52:43;1.47;;;1.00;;
545;SDS011;259;53.304;9.816;2023-11-22T13:55:13;1.17;;;1.07;;
545;SDS011;259;53.304;9.816;2023-11-22T13:57:41;1.20;;;1.10;;
545;SDS011;259;53.304;9.816;2023-11-22T14:00:08;1.10;;;1.00;;
545;SDS011;259;53.304;9.816;2023-11-22T14:02:47;1.53;;;1.13;;
545;SDS011;259;53.304;9.816;2023-11-22T14:05:24;1.70;;;1.23;;
545;SDS011;259;53.304;9.816;2023-11-22T14:07:51;1.17;;;1.07;;
545;SDS011;259;53.304;9.816;2023-11-22T14:10:19;1.03;;;1.03;;
545;SDS011;259;53.304;9.816;2023-11-22T14:12:47;1.30;;;1.20;;
545;SDS011;259;53.304;9.816;2023-11-22T14:15:17;1.10;;;1.10;;
545;SDS011;259;53.304;9.816;2023-11-22T14:17:44;2.17;;;1.10;;
545;SDS011;259;53.304;9.816;2023-11-22T14:20:10;1.40;;;1.23;;
545;SDS011;259;53.304;9.816;2023-11-22T14:22:38;1.53;;;1.07;;
545;SDS011;259;53.304;9.816;2023-11-22T14:25:05;0.87;;;0.80;;
545;SDS011;259;53.304;9.816;2023-11-22T14:27:40;1.07;;;1.00;;
545;SDS011;259;53.304;9.816;2023-11-22T14:30:09;1.87;;;1.57;;
545;SDS011;259;53.304;9.816;2023-11-22T14:32:39;1.00;;;0.90;;
545;SDS011;259;53.304;9.816;2023-11-22T14:35:05;0.90;;;0.90;;
545;SDS011;259;53.304;9.816;2023-11-22T14:37:35;1.70;;;1.60;;
545;SDS011;259;53.304;9.816;2023-11-22T14:40:07;1.33;;;1.20;;
545;SDS011;259;53.304;9.816;2023-11-22T14:42:41;1.07;;;0.97;;
545;SDS011;259;53.304;9.816;2023-11-22T14:45:10;1.07;;;0.97;;
545;SDS011;259;53.304;9.816;2023-11-22T14:47:39;1.60;;;1.50;;
545;SDS011;259;53.304;9.816;2023-11-22T14:50:05;1.00;;;1.00;;
545;SDS011;259;53.304;9.816;2023-11-22T14:52:35;0.87;;;0.87;;
545;SDS011;259;53.304;9.816;2023-11-22T14:55:00;1.17;;;1.10;;
545;SDS011;259;53.304;9.816;2023-11-22T14:57:27;1.20;;;1.10;;
545;SDS011;259;53.304;9.816;2023-11-22T14:59:53;1.33;;;1.23;;
545;SDS011;259;53.304;9.816;2023-11-22T15:02:19;1.03;;;1.03;;
545;SDS011;259;53.304;9.816;2023-11-22T15:04:45;1.20;;;1.10;;
545;SDS011;259;53.304;9.816;2023-11-22T15:07:12;0.90;;;0.90;;
545;SDS011;259;53.304;9.816;2023-11-22T15:09:39;1.30;;;1.20;;
545;SDS011;259;53.304;9.816;2023-11-22T15:12:06;1.13;;;1.03;;
545;SDS011;259;53.304;9.816;2023-11-22T15:14:32;1.13;;;1.03;;
545;SDS011;259;53.304;9.816;2023-11-22T15:16:58;1.30;;;1.20;;
545;SDS011;259;53.304;9.816;2023-11-22T15:19:26;3.90;;;1.50;;
545;SDS011;259;53.304;9.816;2023-11-22T15:21:53;2.97;;;1.60;;
545;SDS011;259;53.304;9.816;2023-11-22T15:24:19;4.20;;;1.73;;
545;SDS011;259;53.304;9.816;2023-11-22T15:26:45;2.77;;;1.47;;
545;SDS011;259;53.304;9.816;2023-11-22T15:29:11;4.17;;;1.63;;
545;SDS011;259;53.304;9.816;2023-11-22T15:31:37;10.80;;;1.97;;
545;SDS011;259;53.304;9.816;2023-11-22T15:34:05;8.57;;;1.70;;
545;SDS011;259;53.304;9.816;2023-11-22T15:36:32;8.20;;;2.57;;
545;SDS011;259;53.304;9.816;2023-11-22T15:38:59;7.13;;;1.73;;
545;SDS011;259;53.304;9.816;2023-11-22T15:41:25;8.87;;;2.07;;
545;SDS011;259;53.304;9.816;2023-11-22T15:43:52;8.70;;;2.27;;
545;SDS011;259;53.304;9.816;2023-11-22T15:46:18;8.47;;;2.70;;